Time;durP1;ratioP1;P1;durP2;ratioP2;P2;SDS_P1;SDS_P2;PMS_P1;PMS_P2;Temp;Humidity;BMP_temperature;BMP_pressure;BME280_temperature;BME280_humidity;BME280_pressure;Samples;Min_cycle;Max_cycle;Signal;HPM_P1;HPM_P2
2023/04/03 00:02:08;;;;;;;;;;;;;;;-145.70;100.00;63560.63;6200498;23;19950;-63
2023/04/03 00:04:34;;;;;;;;;;;;;;;-145.70;100.00;63560.63;6202562;23;19911;-64
2023/04/03 00:07:02;;;;;;;;;;;;;;;-145.70;100.00;63560.63;6201415;23;19912;-64
2023/04/03 00:09:27;;;;;;;;;;;;;;;-145.70;100.00;63560.63;6201245;23;19982;-63
2023/04/03 00:11:52;;;;;;;;;;;;;;;-145.70;100.00;63560.63;6202825;23;20265;-64
2023/04/03 00:14:18;;;;;;;;;;;;;;;-145.70;100.00;63560.63;6199842;23;19912;-63
2023/04/03 00:16:43;;;;;;;;;;;;;;;-145.70;100.00;63560.63;6202778;23;19919;-63
2023/04/03 00:19:11;;;;;;;;;;;;;;;-145.70;100.00;63560.63;6199079;23;19985;-63
2023/04/03 00:21:36;;;;;;;;;;;;;;;-145.70;100.00;63560.63;6202217;23;20024;-64
2023/04/03 00:24:04;;;;;;;;;;;;;;;-145.70;100.00;63560.63;6199629;23;20389;-63
2023/04/03 00:26:32;;;;;;;;;;;;;;;-145.70;100.00;63560.63;6200426;23;20106;-63
2023/04/03 00:28:57;;;;;;;;;;;;;;;-145.70;100.00;63560.63;6203755;23;19994;-64
2023/04/03 00:31:25;;;;;;;;;;;;;;;-145.70;100.00;63560.63;6200370;23;19982;-63
2023/04/03 00:33:50;;;;;;;;;;;;;;;-145.70;100.00;63560.63;6202643;23;19918;-63
2023/04/03 00:36:15;;;;;;;;;;;;;;;-145.70;100.00;63560.63;6198428;23;19908;-63
2023/04/03 00:38:41;;;;;;;;;;;;;;;-145.70;100.00;63560.63;6202441;23;19916;-63
2023/04/03 00:41:09;;;;;;;;;;;;;;;-145.70;100.00;63560.63;6199085;23;19927;-63
2023/04/03 00:43:36;;;;;;;;;;;;;;;-145.70;100.00;63560.63;6202494;23;19911;-63
2023/04/03 00:46:02;;;;;;;;;;;;;;;-145.70;100.00;63560.63;6200049;23;19912;-63
2023/04/03 00:48:29;;;;;;;;;;;;;;;-145.70;100.00;63560.63;6202668;23;19966;-63
2023/04/03 00:50:54;;;;;;;;;;;;;;;-145.70;100.00;63560.63;6174451;23;19919;-63
2023/04/03 00:53:24;;;;;;;;;;;;;;;-145.70;100.00;63560.63;6203302;23;19912;-63
2023/04/03 00:55:50;;;;;;;;;;;;;;;-145.70;100.00;63560.63;6200213;23;19989;-63
2023/04/03 00:58:16;;;;;;;;;;;;;;;-145.70;100.00;63560.63;6199658;23;19997;-64
2023/04/03 01:00:42;;;;;;;;;;;;;;;-145.70;100.00;63560.63;6201553;23;19923;-64
2023/04/03 01:03:07;;;;;;;;;;;;;;;-145.70;100.00;63560.63;6200259;23;19919;-64
2023/04/03 01:05:32;;;;;;;;;;;;;;;-145.70;100.00;63560.63;6201774;23;19916;-64
2023/04/03 01:07:58;;;;;;;;;;;;;;;-145.70;100.00;63560.63;6201219;23;20284;-64
2023/04/03 01:10:25;;;;;;;;;;;;;;;-145.70;100.00;63560.63;6201763;23;19933;-64
2023/04/03 01:12:50;;;;;;;;;;;;;;;-145.70;100.00;63560.63;6201339;23;19961;-64
2023/04/03 01:15:26;;;;;;;;;;;;;;;-145.70;100.00;63560.63;6200404;23;20505;-63
2023/04/03 01:17:58;;;;;;;;;;;;;;;-145.70;100.00;63560.63;6200551;23;20006;-64
2023/04/03 01:20:23;;;;;;;;;;;;;;;-145.70;100.00;63560.63;6199918;23;20313;-63
2023/04/03 01:22:59;;;;;;;;;;;;;;;-145.70;100.00;63560.63;6199408;23;19948;-64
2023/04/03 01:25:25;;;;;;;;;;;;;;;-145.70;100.00;63560.63;6174782;23;19912;-63
2023/04/03 01:27:53;;;;;;;;;;;;;;;-145.70;100.00;63560.63;6198599;23;19916;-64
2023/04/03 01:30:19;;;;;;;;;;;;;;;-145.70;100.00;63560.63;6201252;23;19918;-64
2023/04/03 01:32:47;;;;;;;;;;;;;;;-145.70;100.00;63560.63;6173142;23;20272;-64
2023/04/03 01:35:12;;;;;;;;;;;;;;;-145.70;100.00;63560.63;6201147;23;19912;-64
2023/04/03 01:37:38;;;;;;;;;;;;;;;-145.70;100.00;63560.63;6198727;23;19912;-65
2023/04/03 01:40:06;;;;;;;;;;;;;;;-145.70;100.00;63560.63;6203118;23;19919;-64
2023/04/03 01:42:34;;;;;;;;;;;;;;;-145.70;100.00;63560.63;6170053;23;19920;-64
2023/04/03 01:44:59;;;;;;;;;;;;;;;-145.70;100.00;63560.63;6196124;23;19987;-64
2023/04/03 01:47:25;;;;;;;;;;;;;;;-145.70;100.00;63560.63;6197787;23;19908;-64
2023/04/03 01:49:53;;;;;;;;;;;;;;;-145.70;100.00;63560.63;6196976;23;19931;-64
2023/04/03 01:52:18;;;;;;;;;;;;;;;-145.70;100.00;63560.63;6198782;23;19908;-64
2023/04/03 01:54:43;;;;;;;;;;;;;;;-145.70;100.00;63560.63;6197725;23;20518;-64
2023/04/03 01:57:08;;;;;;;;;;;;;;;-145.70;100.00;63560.63;6174322;23;20010;-64
2023/04/03 01:59:36;;;;;;;;;;;;;;;-145.70;100.00;63560.63;6201013;23;20700;-63
2023/04/03 02:02:01;;;;;;;;;;;;;;;-145.70;100.00;63560.63;6196598;23;19918;-64
2023/04/03 02:04:27;;;;;;;;;;;;;;;-145.70;100.00;63560.63;6199774;23;19916;-63
2023/04/03 02:06:54;;;;;;;;;;;;;;;-145.70;100.00;63560.63;6199086;23;20226;-64
2023/04/03 02:09:20;;;;;;;;;;;;;;;-145.70;100.00;63560.63;6199871;23;19992;-64
2023/04/03 02:11:47;;;;;;;;;;;;;;;-145.70;100.00;63560.63;6172558;23;19943;-63
2023/04/03 02:14:13;;;;;;;;;;;;;;;-145.70;100.00;63560.63;6199233;23;19919;-64
2023/04/03 02:16:38;;;;;;;;;;;;;;;-145.70;100.00;63560.63;6198626;23;19916;-64
2023/04/03 02:19:03;;;;;;;;;;;;;;;-145.70;100.00;63560.63;6175370;23;19940;-64
2023/04/03 02:21:29;;;;;;;;;;;;;;;-145.70;100.00;63560.63;6198786;23;19995;-64
2023/04/03 02:23:54;;;;;;;;;;;;;;;-145.70;100.00;63560.63;6197096;23;19957;-65
2023/04/03 02:26:20;;;;;;;;;;;;;;;-145.70;100.00;63560.63;6199679;23;19920;-64
2023/04/03 02:28:46;;;;;;;;;;;;;;;-145.70;100.00;63560.63;6177393;23;19908;-63
2023/04/03 02:31:14;;;;;;;;;;;;;;;-145.70;100.00;63560.63;6200021;23;20333;-63
2023/04/03 02:33:39;;;;;;;;;;;;;;;-145.70;100.00;63560.63;6198220;23;19920;-63
2023/04/03 02:36:08;;;;;;;;;;;;;;;-145.70;100.00;63560.63;6198652;23;20376;-63
2023/04/03 02:38:33;;;;;;;;;;;;;;;-145.70;100.00;63560.63;6199190;23;19958;-63
2023/04/03 02:41:17;;;;;;;;;;;;;;;-145.70;100.00;63560.63;6202721;23;20372;-62
2023/04/03 02:43:42;;;;;;;;;;;;;;;-145.70;100.00;63560.63;6203875;23;19933;-63
2023/04/03 02:46:07;;;;;;;;;;;;;;;-145.70;100.00;63560.63;6200281;23;20341;-62
2023/04/03 02:48:32;;;;;;;;;;;;;;;-145.70;100.00;63560.63;6202983;23;19912;-63
2023/04/03 02:50:58;;;;;;;;;;;;;;;-145.70;100.00;63560.63;6202970;23;19911;-62
2023/04/03 02:53:25;;;;;;;;;;;;;;;-145.70;100.00;63560.63;6201301;23;20678;-62
2023/04/03 02:55:51;;;;;;;;;;;;;;;-145.70;100.00;63560.63;6203160;23;19915;-62
2023/04/03 02:58:16;;;;;;;;;;;;;;;-145.70;100.00;63560.63;6200024;23;19919;-62
2023/04/03 03:00:42;;;;;;;;;;;;;;;-145.70;100.00;63560.63;6203426;23;19919;-62
2023/04/03 03:03:07;;;;;;;;;;;;;;;-145.70;100.00;63560.63;6177042;23;20400;-62
2023/04/03 03:05:33;;;;;;;;;;;;;;;-145.70;100.00;63560.63;6203319;23;19911;-63
2023/04/03 03:07:58;;;;;;;;;;;;;;;-145.70;100.00;63560.63;6201102;23;19912;-63
2023/04/03 03:10:23;;;;;;;;;;;;;;;-145.70;100.00;63560.63;6201369;23;19912;-62
2023/04/03 03:12:51;;;;;;;;;;;;;;;-145.70;100.00;63560.63;6203418;23;19912;-62
2023/04/03 03:15:19;;;;;;;;;;;;;;;-145.70;100.00;63560.63;6202355;23;19958;-63
2023/04/03 03:17:44;;;;;;;;;;;;;;;-145.70;100.00;63560.63;6203071;23;19966;-63
2023/04/03 03:20:10;;;;;;;;;;;;;;;-145.70;100.00;63560.63;6176706;23;20309;-63
2023/04/03 03:22:35;;;;;;;;;;;;;;;-145.70;100.00;63560.63;6203021;23;19967;-63
2023/04/03 03:25:02;;;;;;;;;;;;;;;-145.70;100.00;63560.63;6201586;23;20316;-62
2023/04/03 03:27:27;;;;;;;;;;;;;;;-145.70;100.00;63560.63;6176898;23;20304;-62
2023/04/03 03:29:52;;;;;;;;;;;;;;;-145.70;100.00;63560.63;6202428;23;19911;-62
2023/04/03 03:32:17;;;;;;;;;;;;;;;-145.70;100.00;63560.63;6200733;23;20003;-62
2023/04/03 03:34:43;;;;;;;;;;;;;;;-145.70;100.00;63560.63;6202920;23;19931;-63
2023/04/03 03:37:10;;;;;;;;;;;;;;;-145.70;100.00;63560.63;6201364;23;20322;-63
2023/04/03 03:39:36;;;;;;;;;;;;;;;-145.70;100.00;63560.63;6203772;23;19962;-62
2023/04/03 03:42:03;;;;;;;;;;;;;;;-145.70;100.00;63560.63;6201193;23;19920;-63
2023/04/03 03:44:29;;;;;;;;;;;;;;;-145.70;100.00;63560.63;6202456;23;19946;-64
2023/04/03 03:46:54;;;;;;;;;;;;;;;-145.70;100.00;63560.63;6202318;23;19908;-64
2023/04/03 03:49:20;;;;;;;;;;;;;;;-145.70;100.00;63560.63;6200314;23;19912;-63
2023/04/03 03:51:45;;;;;;;;;;;;;;;-145.70;100.00;63560.63;6202213;23;19954;-63
2023/04/03 03:54:10;;;;;;;;;;;;;;;-145.70;100.00;63560.63;6200869;23;19943;-64
2023/04/03 03:56:36;;;;;;;;;;;;;;;-145.70;100.00;63560.63;6202655;23;19908;-63
2023/04/03 03:59:01;;;;;;;;;;;;;;;-145.70;100.00;63560.63;6200696;23;19994;-64
2023/04/03 04:01:26;;;;;;;;;;;;;;;-145.70;100.00;63560.63;6203648;22;19912;-64
2023/04/03 04:03:53;;;;;;;;;;;;;;;-145.70;100.00;63560.63;6200314;23;19965;-63
2023/04/03 04:06:19;;;;;;;;;;;;;;;-145.70;100.00;63560.63;6202856;23;19937;-64
2023/04/03 04:08:46;;;;;;;;;;;;;;;-145.70;100.00;63560.63;6201682;23;19911;-63
2023/04/03 04:11:12;;;;;;;;;;;;;;;-145.70;100.00;63560.63;6201221;23;19923;-63
2023/04/03 04:13:37;;;;;;;;;;;;;;;-145.70;100.00;63560.63;6203854;23;19912;-63
2023/04/03 04:16:02;;;;;;;;;;;;;;;-145.70;100.00;63560.63;6202417;23;19912;-64
2023/04/03 04:18:30;;;;;;;;;;;;;;;-145.70;100.00;63560.63;6204707;23;19912;-64
2023/04/03 04:20:55;;;;;;;;;;;;;;;-145.70;100.00;63560.63;6200401;23;19918;-63
2023/04/03 04:23:21;;;;;;;;;;;;;;;-145.70;100.00;63560.63;6205228;23;20322;-64
2023/04/03 04:25:47;;;;;;;;;;;;;;;-145.70;100.00;63560.63;6201759;23;19990;-63
2023/04/03 04:28:12;;;;;;;;;;;;;;;-145.70;100.00;63560.63;6203634;23;19970;-64
2023/04/03 04:30:37;;;;;;;;;;;;;;;-145.70;100.00;63560.63;6201149;23;19908;-63
2023/04/03 04:33:03;;;;;;;;;;;;;;;-145.70;100.00;63560.63;6203728;23;19912;-64
2023/04/03 04:35:28;;;;;;;;;;;;;;;-145.70;100.00;63560.63;6202510;23;20289;-63
2023/04/03 04:37:53;;;;;;;;;;;;;;;-145.70;100.00;63560.63;6200891;23;19912;-64
2023/04/03 04:40:19;;;;;;;;;;;;;;;-145.70;100.00;63560.63;6201996;23;19912;-63
2023/04/03 04:42:44;;;;;;;;;;;;;;;-145.70;100.00;63560.63;6194859;23;19923;-64
2023/04/03 04:45:10;;;;;;;;;;;;;;;-145.70;100.00;63560.63;6172420;23;20636;-64
2023/04/03 04:47:35;;;;;;;;;;;;;;;-145.70;100.00;63560.63;6169625;23;19989;-64
2023/04/03 04:50:00;;;;;;;;;;;;;;;-145.70;100.00;63560.63;6146444;23;19954;-65
2023/04/03 04:52:25;;;;;;;;;;;;;;;-145.70;100.00;63560.63;6170200;23;19919;-64
2023/04/03 04:54:51;;;;;;;;;;;;;;;-145.70;100.00;63560.63;6172602;23;19939;-64
2023/04/03 04:57:17;;;;;;;;;;;;;;;-145.70;100.00;63560.63;6195770;23;19912;-64
2023/04/03 04:59:44;;;;;;;;;;;;;;;-145.70;100.00;63560.63;6198535;23;20343;-63
2023/04/03 05:02:10;;;;;;;;;;;;;;;-145.70;100.00;63560.63;6173964;23;19963;-66
2023/04/03 05:04:36;;;;;;;;;;;;;;;-145.70;100.00;63560.63;6172290;23;19920;-63
2023/04/03 05:07:03;;;;;;;;;;;;;;;-145.70;100.00;63560.63;6175974;23;20322;-63
2023/04/03 05:09:29;;;;;;;;;;;;;;;-145.70;100.00;63560.63;6195218;23;20240;-64
2023/04/03 05:11:54;;;;;;;;;;;;;;;-145.70;100.00;63560.63;6177106;23;19912;-63
2023/04/03 05:14:22;;;;;;;;;;;;;;;-145.70;100.00;63560.63;6174232;23;20299;-63
2023/04/03 05:16:53;;;;;;;;;;;;;;;-145.70;100.00;63560.63;6176283;23;20007;-64
2023/04/03 05:19:21;;;;;;;;;;;;;;;-145.70;100.00;63560.63;6176769;23;19930;-63
2023/04/03 05:21:47;;;;;;;;;;;;;;;-145.70;100.00;63560.63;6200842;23;20325;-64
2023/04/03 05:24:15;;;;;;;;;;;;;;;-145.70;100.00;63560.63;6176450;23;19963;-64
2023/04/03 05:26:41;;;;;;;;;;;;;;;-145.70;100.00;63560.63;6173205;23;19991;-64
2023/04/03 05:29:06;;;;;;;;;;;;;;;-145.70;100.00;63560.63;6165744;23;19997;-64
2023/04/03 05:31:32;;;;;;;;;;;;;;;-145.70;100.00;63560.63;6192956;23;19912;-64
2023/04/03 05:33:57;;;;;;;;;;;;;;;-145.70;100.00;63560.63;6169742;23;19991;-64
2023/04/03 05:36:23;;;;;;;;;;;;;;;-145.70;100.00;63560.63;6168616;23;19979;-64
2023/04/03 05:38:49;;;;;;;;;;;;;;;-145.70;100.00;63560.63;6173655;23;20347;-64
2023/04/03 05:41:15;;;;;;;;;;;;;;;-145.70;100.00;63560.63;6171738;23;20312;-64
2023/04/03 05:43:40;;;;;;;;;;;;;;;-145.70;100.00;63560.63;6150279;23;19959;-64
2023/04/03 05:46:12;;;;;;;;;;;;;;;-145.70;100.00;63560.63;6149888;23;19955;-64
2023/04/03 05:48:37;;;;;;;;;;;;;;;-145.70;100.00;63560.63;6149430;23;19966;-64
2023/04/03 05:51:07;;;;;;;;;;;;;;;-145.70;100.00;63560.63;6150364;23;20380;-64
2023/04/03 05:53:33;;;;;;;;;;;;;;;-145.70;100.00;63560.63;6150329;23;19923;-64
2023/04/03 05:55:58;;;;;;;;;;;;;;;-145.70;100.00;63560.63;6149912;23;19912;-65
2023/04/03 05:58:26;;;;;;;;;;;;;;;-145.70;100.00;63560.63;6147612;23;20676;-64
2023/04/03 06:00:51;;;;;;;;;;;;;;;-145.70;100.00;63560.63;6176907;23;20349;-62
2023/04/03 06:03:17;;;;;;;;;;;;;;;-145.70;100.00;63560.63;6146635;23;19919;-64
2023/04/03 06:05:42;;;;;;;;;;;;;;;-145.70;100.00;63560.63;6150681;23;19912;-63
2023/04/03 06:08:08;;;;;;;;;;;;;;;-145.70;100.00;63560.63;6171075;23;19994;-63
2023/04/03 06:10:34;;;;;;;;;;;;;;;-145.70;100.00;63560.63;6148427;23;20014;-63
2023/04/03 06:13:04;;;;;;;;;;;;;;;-145.70;100.00;63560.63;6147585;23;19943;-63
2023/04/03 06:15:30;;;;;;;;;;;;;;;-145.70;100.00;63560.63;6148869;23;19962;-63
2023/04/03 06:17:57;;;;;;;;;;;;;;;-145.70;100.00;63560.63;6146998;23;20340;-63
2023/04/03 06:20:23;;;;;;;;;;;;;;;-145.70;100.00;63560.63;6172247;23;20348;-62
2023/04/03 06:22:48;;;;;;;;;;;;;;;-145.70;100.00;63560.63;6148346;23;19916;-63
2023/04/03 06:25:14;;;;;;;;;;;;;;;-145.70;100.00;63560.63;6174959;23;19966;-63
2023/04/03 06:27:41;;;;;;;;;;;;;;;-145.70;100.00;63560.63;6150277;23;19912;-63
2023/04/03 06:30:07;;;;;;;;;;;;;;;-145.70;100.00;63560.63;6149364;23;19946;-63
2023/04/03 06:32:32;;;;;;;;;;;;;;;-145.70;100.00;63560.63;6146511;23;20337;-63
2023/04/03 06:34:58;;;;;;;;;;;;;;;-145.70;100.00;63560.63;6146550;23;19914;-63
2023/04/03 06:37:25;;;;;;;;;;;;;;;-145.70;100.00;63560.63;6171101;23;20242;-63
2023/04/03 06:39:51;;;;;;;;;;;;;;;-145.70;100.00;63560.63;6147753;23;19912;-64
2023/04/03 06:42:19;;;;;;;;;;;;;;;-145.70;100.00;63560.63;6160813;23;19943;-63
2023/04/03 06:44:46;;;;;;;;;;;;;;;-145.70;100.00;63560.63;6172519;23;19960;-64
2023/04/03 06:47:15;;;;;;;;;;;;;;;-145.70;100.00;63560.63;6190624;23;19915;-63
2023/04/03 06:49:41;;;;;;;;;;;;;;;-145.70;100.00;63560.63;6205123;23;19918;-64
2023/04/03 06:52:06;;;;;;;;;;;;;;;-145.70;100.00;63560.63;6203605;23;20014;-64
2023/04/03 06:54:32;;;;;;;;;;;;;;;-145.70;100.00;63560.63;6203614;23;19912;-63
2023/04/03 06:56:57;;;;;;;;;;;;;;;-145.70;100.00;63560.63;6202283;23;19916;-64
2023/04/03 06:59:23;;;;;;;;;;;;;;;-145.70;100.00;63560.63;6200944;23;20356;-64
2023/04/03 07:01:48;;;;;;;;;;;;;;;-145.70;100.00;63560.63;6204071;23;19912;-64
2023/04/03 07:04:14;;;;;;;;;;;;;;;-145.70;100.00;63560.63;6202523;23;20392;-64
2023/04/03 07:06:40;;;;;;;;;;;;;;;-145.70;100.00;63560.63;6204814;23;19993;-63
2023/04/03 07:09:05;;;;;;;;;;;;;;;-145.70;100.00;63560.63;6202761;23;20222;-64
2023/04/03 07:11:31;;;;;;;;;;;;;;;-145.70;100.00;63560.63;6204813;23;20257;-64
2023/04/03 07:13:56;;;;;;;;;;;;;;;-145.70;100.00;63560.63;6201768;23;20617;-63
2023/04/03 07:16:22;;;;;;;;;;;;;;;-145.70;100.00;63560.63;6205932;23;19912;-64
2023/04/03 07:18:47;;;;;;;;;;;;;;;-145.70;100.00;63560.63;6201497;23;20700;-64
2023/04/03 07:21:12;;;;;;;;;;;;;;;-145.70;100.00;63560.63;6201549;23;19919;-64
2023/04/03 07:23:38;;;;;;;;;;;;;;;-145.70;100.00;63560.63;6202418;23;19915;-64
2023/04/03 07:26:03;;;;;;;;;;;;;;;-145.70;100.00;63560.63;6203408;23;19919;-64
2023/04/03 07:28:29;;;;;;;;;;;;;;;-145.70;100.00;63560.63;6202761;23;19918;-64
2023/04/03 07:31:05;;;;;;;;;;;;;;;-145.70;100.00;63560.63;6202429;23;20269;-64
2023/04/03 07:33:31;;;;;;;;;;;;;;;-145.70;100.00;63560.63;6203425;23;20373;-64
2023/04/03 07:35:57;;;;;;;;;;;;;;;-145.70;100.00;63560.63;6202974;23;19943;-64
2023/04/03 07:38:22;;;;;;;;;;;;;;;-145.70;100.00;63560.63;6204060;23;19943;-64
2023/04/03 07:40:48;;;;;;;;;;;;;;;-145.70;100.00;63560.63;6203288;23;19919;-64
2023/04/03 07:43:14;;;;;;;;;;;;;;;-145.70;100.00;63560.63;6174078;23;20349;-66
2023/04/03 07:45:39;;;;;;;;;;;;;;;-145.70;100.00;63560.63;6172207;23;19920;-65
2023/04/03 07:48:05;;;;;;;;;;;;;;;-145.70;100.00;63560.63;6171977;23;19970;-66
2023/04/03 07:50:32;;;;;;;;;;;;;;;-145.70;100.00;63560.63;6196935;23;20165;-65
2023/04/03 07:52:59;;;;;;;;;;;;;;;-145.70;100.00;63560.63;6192917;23;19912;-66
2023/04/03 07:55:25;;;;;;;;;;;;;;;-145.70;100.00;63560.63;6189200;23;20521;-65
2023/04/03 07:57:53;;;;;;;;;;;;;;;-145.70;100.00;63560.63;6178888;22;20495;-66
2023/04/03 08:00:19;;;;;;;;;;;;;;;-145.70;100.00;63560.63;6193211;23;19998;-65
2023/04/03 08:02:50;;;;;;;;;;;;;;;-145.70;100.00;63560.63;6196451;23;19911;-66
2023/04/03 08:05:15;;;;;;;;;;;;;;;-145.70;100.00;63560.63;6188668;23;19919;-65
2023/04/03 08:07:40;;;;;;;;;;;;;;;-145.70;100.00;63560.63;6146494;23;19912;-65
2023/04/03 08:10:06;;;;;;;;;;;;;;;-145.70;100.00;63560.63;6195299;23;19919;-66
2023/04/03 08:12:34;;;;;;;;;;;;;;;-145.70;100.00;63560.63;6195103;23;19916;-65
2023/04/03 08:15:00;;;;;;;;;;;;;;;-145.70;100.00;63560.63;6195908;22;19915;-66
2023/04/03 08:17:26;;;;;;;;;;;;;;;-145.70;100.00;63560.63;6189125;23;19912;-65
2023/04/03 08:19:51;;;;;;;;;;;;;;;-145.70;100.00;63560.63;6193679;23;19939;-65
2023/04/03 08:22:16;;;;;;;;;;;;;;;-145.70;100.00;63560.63;6194801;23;20336;-65
2023/04/03 08:24:44;;;;;;;;;;;;;;;-145.70;100.00;63560.63;6195409;23;19911;-65
2023/04/03 08:27:10;;;;;;;;;;;;;;;-145.70;100.00;63560.63;6196412;23;19915;-65
2023/04/03 08:29:38;;;;;;;;;;;;;;;-145.70;100.00;63560.63;6194482;23;20332;-65
2023/04/03 08:32:04;;;;;;;;;;;;;;;-145.70;100.00;63560.63;6197116;23;19912;-65
2023/04/03 08:34:29;;;;;;;;;;;;;;;-145.70;100.00;63560.63;6194051;23;19916;-65
2023/04/03 08:36:55;;;;;;;;;;;;;;;-145.70;100.00;63560.63;6191928;23;19908;-66
2023/04/03 08:39:20;;;;;;;;;;;;;;;-145.70;100.00;63560.63;6190525;23;19912;-65
2023/04/03 08:41:48;;;;;;;;;;;;;;;-145.70;100.00;63560.63;6147604;23;20345;-65
2023/04/03 08:44:16;;;;;;;;;;;;;;;-145.70;100.00;63560.63;6196756;23;19978;-65
2023/04/03 08:46:43;;;;;;;;;;;;;;;-145.70;100.00;63560.63;6195016;23;19908;-65
2023/04/03 08:49:21;;;;;;;;;;;;;;;-145.70;100.00;63560.63;6195983;23;19911;-65
2023/04/03 08:51:49;;;;;;;;;;;;;;;-145.70;100.00;63560.63;6194819;23;19908;-65
2023/04/03 08:54:25;;;;;;;;;;;;;;;-145.70;100.00;63560.63;6196533;23;19912;-65
2023/04/03 08:56:51;;;;;;;;;;;;;;;-145.70;100.00;63560.63;6191666;23;19914;-65
2023/04/03 08:59:18;;;;;;;;;;;;;;;-145.70;100.00;63560.63;6190939;23;20002;-65
2023/04/03 09:01:43;;;;;;;;;;;;;;;-145.70;100.00;63560.63;6189895;23;20303;-65
2023/04/03 09:04:10;;;;;;;;;;;;;;;-145.70;100.00;63560.63;6170893;23;19908;-65
2023/04/03 09:06:36;;;;;;;;;;;;;;;-145.70;100.00;63560.63;6192404;23;19908;-65
2023/04/03 09:09:15;;;;;;;;;;;;;;;-145.70;100.00;63560.63;6193258;23;19926;-65
2023/04/03 09:11:43;;;;;;;;;;;;;;;-145.70;100.00;63560.63;6198816;23;19961;-65
2023/04/03 09:14:15;;;;;;;;;;;;;;;-145.70;100.00;63560.63;6197142;23;20415;-64
2023/04/03 09:16:50;;;;;;;;;;;;;;;-145.70;100.00;63560.63;6198043;23;19914;-65
2023/04/03 09:19:42;;;;;;;;;;;;;;;-145.70;100.00;63560.63;6191360;23;19916;-65
2023/04/03 09:22:09;;;;;;;;;;;;;;;-145.70;100.00;63560.63;6176095;23;19911;-65
2023/04/03 09:24:37;;;;;;;;;;;;;;;-145.70;100.00;63560.63;6197081;23;19912;-65
2023/04/03 09:27:07;;;;;;;;;;;;;;;-145.70;100.00;63560.63;6195010;23;20006;-65
2023/04/03 09:29:33;;;;;;;;;;;;;;;-145.70;100.00;63560.63;6189467;23;20386;-65
2023/04/03 09:32:00;;;;;;;;;;;;;;;-145.70;100.00;63560.63;6169281;23;20389;-65
2023/04/03 09:34:45;;;;;;;;;;;;;;;-145.70;100.00;63560.63;6191015;23;19990;-65
2023/04/03 09:37:11;;;;;;;;;;;;;;;-145.70;100.00;63560.63;6182570;23;19908;-65
2023/04/03 09:39:50;;;;;;;;;;;;;;;-145.70;100.00;63560.63;6196235;23;20196;-65
2023/04/03 09:42:18;;;;;;;;;;;;;;;-145.70;100.00;63560.63;6194676;23;19947;-64
2023/04/03 09:44:44;;;;;;;;;;;;;;;-145.70;100.00;63560.63;6195616;23;20710;-65
2023/04/03 09:47:18;;;;;;;;;;;;;;;-145.70;100.00;63560.63;6193531;23;19934;-64
2023/04/03 09:49:44;;;;;;;;;;;;;;;-145.70;100.00;63560.63;6197872;23;19920;-65
2023/04/03 09:52:19;;;;;;;;;;;;;;;-145.70;100.00;63560.63;6195717;23;20010;-65
2023/04/03 09:54:45;;;;;;;;;;;;;;;-145.70;100.00;63560.63;6196825;23;19918;-65
2023/04/03 09:57:14;;;;;;;;;;;;;;;-145.70;100.00;63560.63;6196753;23;19922;-64
2023/04/03 09:59:47;;;;;;;;;;;;;;;-145.70;100.00;63560.63;6195085;23;19911;-65
2023/04/03 10:02:23;;;;;;;;;;;;;;;-145.70;100.00;63560.63;6195254;23;19915;-65
2023/04/03 10:04:51;;;;;;;;;;;;;;;-145.70;100.00;63560.63;6197226;23;20023;-65
2023/04/03 10:07:31;;;;;;;;;;;;;;;-145.70;100.00;63560.63;6196836;23;19912;-64
2023/04/03 10:10:01;;;;;;;;;;;;;;;-145.70;100.00;63560.63;6196345;23;19918;-65
2023/04/03 10:12:29;;;;;;;;;;;;;;;-145.70;100.00;63560.63;6197353;23;20198;-65
2023/04/03 10:15:01;;;;;;;;;;;;;;;-145.70;100.00;63560.63;6197885;23;19916;-65
2023/04/03 10:17:45;;;;;;;;;;;;;;;-145.70;100.00;63560.63;6198249;23;19934;-65
2023/04/03 10:20:30;;;;;;;;;;;;;;;-145.70;100.00;63560.63;6199784;23;19912;-66
2023/04/03 10:23:20;;;;;;;;;;;;;;;-145.70;100.00;63560.63;6194506;23;19916;-66
2023/04/03 10:25:51;;;;;;;;;;;;;;;-145.70;100.00;63560.63;6190658;23;19954;-65
2023/04/03 10:28:40;;;;;;;;;;;;;;;-145.70;100.00;63560.63;6195113;23;19911;-65
2023/04/03 10:31:24;;;;;;;;;;;;;;;-145.70;100.00;63560.63;6193082;23;19946;-66
2023/04/03 10:33:49;;;;;;;;;;;;;;;-145.70;100.00;63560.63;6194824;23;19907;-65
2023/04/03 10:36:20;;;;;;;;;;;;;;;-145.70;100.00;63560.63;6196179;23;19919;-66
2023/04/03 10:38:57;;;;;;;;;;;;;;;-145.70;100.00;63560.63;6196174;23;19919;-66
2023/04/03 10:41:42;;;;;;;;;;;;;;;-145.70;100.00;63560.63;6194016;23;20396;-65
2023/04/03 10:44:18;;;;;;;;;;;;;;;-145.70;100.00;63560.63;6196601;23;20513;-65
2023/04/03 10:46:47;;;;;;;;;;;;;;;-145.70;100.00;63560.63;6196132;23;19985;-65
2023/04/03 10:49:15;;;;;;;;;;;;;;;-145.70;100.00;63560.63;6195339;23;19911;-66
2023/04/03 10:51:43;;;;;;;;;;;;;;;-145.70;100.00;63560.63;6196078;23;19912;-66
2023/04/03 10:54:25;;;;;;;;;;;;;;;-145.70;100.00;63560.63;6195574;23;19988;-65
2023/04/03 10:56:51;;;;;;;;;;;;;;;-145.70;100.00;63560.63;6193480;23;19916;-65
2023/04/03 10:59:17;;;;;;;;;;;;;;;-145.70;100.00;63560.63;6193832;23;20311;-65
2023/04/03 11:01:45;;;;;;;;;;;;;;;-145.70;100.00;63560.63;6196476;23;19934;-65
2023/04/03 11:04:10;;;;;;;;;;;;;;;-145.70;100.00;63560.63;6200030;23;19908;-65
2023/04/03 11:06:38;;;;;;;;;;;;;;;-145.70;100.00;63560.63;6200028;23;19907;-64
2023/04/03 11:09:18;;;;;;;;;;;;;;;-145.70;100.00;63560.63;6201190;23;20218;-65
2023/04/03 11:11:47;;;;;;;;;;;;;;;-145.70;100.00;63560.63;6200761;23;20132;-64
2023/04/03 11:14:29;;;;;;;;;;;;;;;-145.70;100.00;63560.63;6202540;23;20233;-65
2023/04/03 11:17:14;;;;;;;;;;;;;;;-145.70;100.00;63560.63;6203261;23;19919;-64
2023/04/03 11:19:58;;;;;;;;;;;;;;;-145.70;100.00;63560.63;6197502;23;19991;-64
2023/04/03 11:22:26;;;;;;;;;;;;;;;-145.70;100.00;63560.63;6201715;23;20221;-63
2023/04/03 11:25:12;;;;;;;;;;;;;;;-145.70;100.00;63560.63;6201960;23;19916;-64
2023/04/03 11:27:41;;;;;;;;;;;;;;;-145.70;100.00;63560.63;6194702;23;19912;-59
2023/04/03 11:30:09;;;;;;;;;;;;;;;-145.70;100.00;63560.63;6202714;23;19908;-60
2023/04/03 11:32:37;;;;;;;;;;;;;;;-145.70;100.00;63560.63;6200098;23;20010;-60
2023/04/03 11:35:02;;;;;;;;;;;;;;;-145.70;100.00;63560.63;6204857;23;19912;-60
2023/04/03 11:37:36;;;;;;;;;;;;;;;-145.70;100.00;63560.63;6201009;23;20848;-60
2023/04/03 11:40:04;;;;;;;;;;;;;;;-145.70;100.00;63560.63;6204469;23;19955;-60
2023/04/03 11:42:43;;;;;;;;;;;;;;;-145.70;100.00;63560.63;6202754;23;20037;-60
2023/04/03 11:45:17;;;;;;;;;;;;;;;-145.70;100.00;63560.63;6203679;23;19912;-60
2023/04/03 11:47:44;;;;;;;;;;;;;;;-145.70;100.00;63560.63;6205807;23;19966;-60
2023/04/03 11:50:15;;;;;;;;;;;;;;;-145.70;100.00;63560.63;6200595;23;20078;-60
2023/04/03 11:52:42;;;;;;;;;;;;;;;-145.70;100.00;63560.63;6201555;23;19911;-60
2023/04/03 11:55:20;;;;;;;;;;;;;;;-145.70;100.00;63560.63;6202745;23;19998;-59
2023/04/03 11:57:57;;;;;;;;;;;;;;;-145.70;100.00;63560.63;6203548;23;20237;-60
2023/04/03 12:00:41;;;;;;;;;;;;;;;-145.70;100.00;63560.63;6204737;23;19911;-60
2023/04/03 12:03:28;;;;;;;;;;;;;;;-145.70;100.00;63560.63;6204082;23;19923;-60
2023/04/03 12:05:54;;;;;;;;;;;;;;;-145.70;100.00;63560.63;6199922;23;19919;-60
2023/04/03 12:08:30;;;;;;;;;;;;;;;-145.70;100.00;63560.63;6204971;23;19966;-60
2023/04/03 12:11:16;;;;;;;;;;;;;;;-145.70;100.00;63560.63;6201373;23;20014;-60
2023/04/03 12:13:53;;;;;;;;;;;;;;;-145.70;100.00;63560.63;6201799;23;19999;-60
2023/04/03 12:16:25;;;;;;;;;;;;;;;-145.70;100.00;63560.63;6201984;23;19918;-60
2023/04/03 12:18:53;;;;;;;;;;;;;;;-145.70;100.00;63560.63;6201811;23;19943;-60
2023/04/03 12:21:22;;;;;;;;;;;;;;;-145.70;100.00;63560.63;6203598;23;19950;-60
2023/04/03 12:24:00;;;;;;;;;;;;;;;-145.70;100.00;63560.63;6201841;23;20010;-60